createdAt,value
2022-11-30T16:07:02.905Z,32.67
2022-11-30T16:12:33.256Z,36.80
2022-11-30T16:15:04.584Z,33.60
2022-11-30T16:17:36.090Z,34.43
2022-11-30T16:20:11.471Z,41.53
2022-11-30T16:22:47.123Z,30.73
2022-11-30T16:25:19.780Z,32.13
2022-11-30T16:27:54.202Z,32.03
2022-11-30T16:30:26.374Z,34.57
2022-11-30T16:32:57.180Z,33.00
2022-11-30T16:35:34.541Z,32.10
2022-11-30T16:38:07.981Z,29.00
2022-11-30T16:40:39.370Z,37.50
2022-11-30T16:43:12.883Z,29.47
2022-11-30T16:45:46.141Z,32.00
2022-11-30T16:48:20.471Z,31.20
2022-11-30T16:50:52.763Z,30.90
2022-11-30T16:53:28.707Z,28.97
2022-11-30T16:56:00.081Z,30.47
2022-11-30T16:58:30.855Z,31.77
2022-11-30T17:01:02.042Z,33.47
2022-11-30T17:03:35.698Z,33.83
2022-11-30T17:09:02.501Z,29.70
2022-11-30T17:11:36.426Z,27.60
2022-11-30T17:14:07.728Z,30.60
2022-11-30T17:16:39.533Z,28.27
2022-11-30T17:19:10.486Z,29.07
2022-11-30T17:21:44.463Z,28.60
2022-11-30T17:24:18.190Z,34.87
2022-11-30T17:26:48.980Z,29.07
2022-11-30T17:29:21.080Z,26.20
2022-11-30T17:31:52.099Z,23.93
2022-11-30T17:34:22.859Z,25.03
2022-11-30T17:36:58.333Z,24.10
2022-11-30T17:39:36.193Z,28.00
2022-11-30T17:42:06.946Z,29.30
2022-11-30T17:44:37.825Z,34.77
2022-11-30T17:47:08.612Z,28.23
2022-11-30T17:55:48.103Z,33.87
2022-11-30T17:58:19.153Z,33.57
2022-11-30T18:00:50.007Z,33.83
2022-11-30T18:03:20.746Z,32.67
2022-11-30T18:05:52.563Z,29.73
2022-11-30T18:08:23.271Z,32.90
2022-11-30T18:10:56.625Z,32.20
2022-11-30T18:13:31.072Z,32.53
2022-11-30T18:16:12.611Z,32.27
2022-11-30T18:18:48.446Z,33.60
2022-11-30T18:21:21.868Z,33.50
2022-11-30T18:23:53.579Z,36.17
2022-11-30T18:26:30.708Z,36.27
2022-11-30T18:29:02.816Z,34.63
2022-11-30T18:31:34.200Z,39.23
2022-11-30T18:34:07.262Z,44.53
2022-11-30T18:36:38.024Z,42.53
2022-11-30T18:39:09.517Z,48.77
2022-11-30T18:41:42.854Z,45.97
2022-11-30T18:44:13.952Z,50.23
2022-11-30T18:46:45.013Z,50.67
2022-11-30T18:49:15.962Z,51.63
2022-11-30T18:51:46.672Z,50.17
2022-11-30T18:54:18.969Z,47.37
2022-11-30T18:56:52.340Z,47.00
2022-11-30T18:59:23.666Z,49.90
2022-11-30T19:01:55.454Z,45.67
2022-11-30T19:04:28.280Z,48.50
2022-11-30T19:07:02.600Z,58.27
2022-11-30T19:09:33.525Z,49.20
2022-11-30T19:12:09.847Z,53.57
2022-11-30T19:14:42.818Z,50.77
2022-11-30T19:17:13.882Z,45.13
2022-11-30T19:19:44.759Z,57.60
2022-11-30T19:22:15.602Z,56.40
2022-11-30T19:24:46.879Z,57.67
2022-11-30T19:27:20.485Z,61.03
2022-11-30T19:29:53.643Z,67.93
2022-11-30T19:32:27.724Z,61.93
2022-11-30T19:34:58.474Z,57.57
2022-11-30T19:37:29.446Z,61.30
2022-11-30T19:40:00.192Z,74.70
2022-11-30T19:42:35.461Z,66.40
2022-11-30T19:45:06.863Z,62.97
2022-11-30T19:47:37.810Z,81.53
2022-11-30T19:50:12.417Z,71.07
2022-11-30T19:52:45.520Z,67.37
2022-11-30T19:57:59.163Z,68.07
2022-11-30T20:00:29.860Z,64.37
2022-11-30T20:03:00.743Z,67.83
2022-11-30T20:05:31.685Z,54.97
2022-11-30T20:08:02.427Z,62.03
2022-11-30T20:10:33.186Z,56.90
2022-11-30T20:13:08.742Z,61.83
2022-11-30T20:15:42.013Z,58.97
2022-11-30T20:18:13.021Z,46.83
2022-11-30T20:20:47.629Z,44.60
2022-11-30T20:23:23.474Z,52.27
2022-11-30T20:26:04.062Z,42.27
2022-11-30T20:31:40.357Z,51.50
2022-11-30T20:34:12.750Z,45.80
2022-11-30T20:36:45.493Z,49.13
2022-11-30T20:39:18.301Z,48.67
2022-11-30T20:41:52.397Z,54.77
2022-11-30T20:44:23.345Z,54.83
2022-11-30T20:46:56.717Z,66.17
2022-11-30T20:49:27.485Z,78.17
2022-11-30T20:51:58.297Z,71.33
2022-11-30T20:54:30.594Z,65.93
2022-11-30T20:57:01.315Z,46.73
2022-11-30T20:59:34.647Z,45.43
2022-11-30T21:02:08.014Z,51.20
2022-11-30T21:04:39.226Z,46.70
2022-11-30T21:07:09.955Z,54.67
2022-11-30T21:09:40.723Z,45.87
2022-11-30T21:12:11.476Z,50.97
2022-11-30T21:14:45.166Z,60.07
2022-11-30T21:17:18.586Z,54.17
2022-11-30T21:28:39.437Z,61.67
2022-11-30T21:31:10.882Z,62.93
2022-11-30T21:33:52.685Z,56.10
2022-11-30T21:36:28.998Z,51.10
2022-11-30T21:39:06.301Z,52.30
2022-11-30T21:41:39.474Z,52.80
2022-11-30T21:44:13.494Z,42.50
2022-11-30T21:46:45.508Z,52.00
2022-11-30T21:49:21.842Z,48.17
2022-11-30T21:51:52.556Z,49.03
2022-11-30T21:54:23.379Z,42.70
2022-11-30T21:56:55.907Z,40.27
2022-11-30T21:59:27.849Z,45.00
2022-11-30T22:01:58.626Z,49.07
2022-11-30T22:04:40.043Z,49.90
2022-11-30T22:07:15.269Z,48.37
2022-11-30T22:09:46.160Z,46.20
2022-11-30T22:12:17.362Z,49.50
2022-11-30T22:14:48.534Z,46.20
2022-11-30T22:17:19.357Z,52.83
2022-11-30T22:19:53.035Z,48.77
2022-11-30T22:22:24.010Z,56.67
2022-11-30T22:24:57.562Z,58.50
2022-11-30T22:27:28.293Z,55.37
2022-11-30T22:29:59.006Z,57.90
2022-11-30T22:32:32.139Z,56.57
2022-11-30T22:35:06.080Z,57.07
2022-11-30T22:37:39.598Z,72.93
2022-11-30T22:40:12.335Z,67.00
2022-11-30T22:42:43.147Z,70.47
2022-11-30T22:48:16.489Z,79.67
2022-11-30T22:50:50.420Z,71.93
2022-11-30T22:53:21.180Z,78.70
2022-11-30T22:55:52.055Z,81.57
2022-11-30T22:58:25.281Z,75.37
2022-11-30T23:00:56.113Z,71.63
2022-11-30T23:03:28.846Z,87.77
2022-11-30T23:06:02.749Z,88.33
2022-11-30T23:08:34.364Z,78.20
2022-11-30T23:11:09.297Z,88.43
2022-11-30T23:13:41.235Z,73.40
2022-11-30T23:16:12.918Z,80.93
2022-11-30T23:34:03.189Z,100.60
2022-11-30T23:36:34.445Z,89.17
2022-11-30T23:39:07.390Z,98.87
2022-11-30T23:41:46.228Z,99.00
2022-11-30T23:44:17.231Z,95.00
2022-11-30T23:46:48.246Z,98.90
2022-11-30T23:49:21.681Z,105.37
2022-11-30T23:51:52.826Z,106.80
2022-11-30T23:54:25.227Z,99.00
2022-11-30T23:56:59.730Z,111.47
2022-11-30T23:59:30.551Z,104.47
